sensor_id;sensor_type;location;lat;lon;timestamp;P1;durP1;ratioP1;P2;durP2;ratioP2
79375;SDS011;68846;53.150;18.136;2024-03-06T00:00:04;29.50;;;13.50;;
79375;SDS011;68846;53.150;18.136;2024-03-06T00:02:35;25.90;;;14.40;;
79375;SDS011;68846;53.150;18.136;2024-03-06T00:05:03;27.50;;;14.50;;
79375;SDS011;68846;53.150;18.136;2024-03-06T00:07:32;29.90;;;15.30;;
79375;SDS011;68846;53.150;18.136;2024-03-06T00:10:01;26.50;;;13.90;;
79375;SDS011;68846;53.150;18.136;2024-03-06T00:12:31;26.20;;;13.30;;
79375;SDS011;68846;53.150;18.136;2024-03-06T00:14:58;30.80;;;14.90;;
79375;SDS011;68846;53.150;18.136;2024-03-06T00:17:26;29.80;;;14.80;;
79375;SDS011;68846;53.150;18.136;2024-03-06T00:19:54;26.60;;;14.20;;
79375;SDS011;68846;53.150;18.136;2024-03-06T00:22:22;29.40;;;15.30;;
79375;SDS011;68846;53.150;18.136;2024-03-06T00:24:51;30.20;;;15.10;;
79375;SDS011;68846;53.150;18.136;2024-03-06T00:27:19;28.40;;;14.90;;
79375;SDS011;68846;53.150;18.136;2024-03-06T00:29:47;26.80;;;15.20;;
79375;SDS011;68846;53.150;18.136;2024-03-06T00:32:16;25.60;;;15.00;;
79375;SDS011;68846;53.150;18.136;2024-03-06T00:34:44;27.80;;;14.70;;
79375;SDS011;68846;53.150;18.136;2024-03-06T00:37:12;29.00;;;14.80;;
79375;SDS011;68846;53.150;18.136;2024-03-06T00:39:40;32.50;;;14.80;;
79375;SDS011;68846;53.150;18.136;2024-03-06T00:42:07;30.70;;;16.20;;
79375;SDS011;68846;53.150;18.136;2024-03-06T00:47:08;25.50;;;13.40;;
79375;SDS011;68846;53.150;18.136;2024-03-06T00:49:36;27.70;;;14.20;;
79375;SDS011;68846;53.150;18.136;2024-03-06T01:00:50;26.30;;;14.50;;
79375;SDS011;68846;53.150;18.136;2024-03-06T01:06:41;30.30;;;15.90;;
79375;SDS011;68846;53.150;18.136;2024-03-06T01:09:09;31.10;;;15.70;;
79375;SDS011;68846;53.150;18.136;2024-03-06T01:11:37;25.90;;;14.70;;
79375;SDS011;68846;53.150;18.136;2024-03-06T01:19:00;30.30;;;14.80;;
79375;SDS011;68846;53.150;18.136;2024-03-06T01:21:28;30.20;;;15.00;;
79375;SDS011;68846;53.150;18.136;2024-03-06T01:28:06;26.80;;;14.10;;
79375;SDS011;68846;53.150;18.136;2024-03-06T01:30:35;26.20;;;14.80;;
79375;SDS011;68846;53.150;18.136;2024-03-06T01:33:03;28.70;;;15.40;;
79375;SDS011;68846;53.150;18.136;2024-03-06T01:35:33;29.40;;;15.10;;
79375;SDS011;68846;53.150;18.136;2024-03-06T01:38:01;29.40;;;14.50;;
79375;SDS011;68846;53.150;18.136;2024-03-06T01:45:30;25.60;;;14.10;;
79375;SDS011;68846;53.150;18.136;2024-03-06T01:47:58;25.30;;;13.80;;
79375;SDS011;68846;53.150;18.136;2024-03-06T01:50:26;27.40;;;14.40;;
79375;SDS011;68846;53.150;18.136;2024-03-06T01:52:54;25.80;;;14.00;;
79375;SDS011;68846;53.150;18.136;2024-03-06T01:55:22;27.10;;;13.90;;
79375;SDS011;68846;53.150;18.136;2024-03-06T01:57:50;27.00;;;14.50;;
79375;SDS011;68846;53.150;18.136;2024-03-06T02:00:19;25.40;;;12.90;;
79375;SDS011;68846;53.150;18.136;2024-03-06T02:02:49;29.10;;;14.60;;
79375;SDS011;68846;53.150;18.136;2024-03-06T02:05:17;26.30;;;15.00;;
79375;SDS011;68846;53.150;18.136;2024-03-06T02:07:49;27.10;;;13.60;;
79375;SDS011;68846;53.150;18.136;2024-03-06T02:10:19;27.50;;;14.90;;
79375;SDS011;68846;53.150;18.136;2024-03-06T02:12:48;28.00;;;15.30;;
79375;SDS011;68846;53.150;18.136;2024-03-06T02:15:16;25.30;;;14.80;;
79375;SDS011;68846;53.150;18.136;2024-03-06T02:17:47;26.70;;;15.50;;
79375;SDS011;68846;53.150;18.136;2024-03-06T02:20:15;26.10;;;15.40;;
79375;SDS011;68846;53.150;18.136;2024-03-06T02:22:43;28.60;;;14.30;;
79375;SDS011;68846;53.150;18.136;2024-03-06T02:25:11;28.30;;;15.00;;
79375;SDS011;68846;53.150;18.136;2024-03-06T02:27:39;28.70;;;16.20;;
79375;SDS011;68846;53.150;18.136;2024-03-06T02:30:07;27.70;;;14.90;;
79375;SDS011;68846;53.150;18.136;2024-03-06T02:45:12;27.90;;;14.50;;
79375;SDS011;68846;53.150;18.136;2024-03-06T02:47:40;28.60;;;14.90;;
79375;SDS011;68846;53.150;18.136;2024-03-06T02:50:32;27.20;;;14.70;;
79375;SDS011;68846;53.150;18.136;2024-03-06T02:53:00;25.70;;;13.40;;
79375;SDS011;68846;53.150;18.136;2024-03-06T02:58:46;27.80;;;14.60;;
79375;SDS011;68846;53.150;18.136;2024-03-06T03:01:16;28.40;;;15.50;;
79375;SDS011;68846;53.150;18.136;2024-03-06T03:03:43;29.60;;;15.50;;
79375;SDS011;68846;53.150;18.136;2024-03-06T03:14:58;32.20;;;16.10;;
79375;SDS011;68846;53.150;18.136;2024-03-06T03:17:27;31.00;;;15.10;;
79375;SDS011;68846;53.150;18.136;2024-03-06T03:19:55;31.60;;;16.20;;
79375;SDS011;68846;53.150;18.136;2024-03-06T03:22:23;31.00;;;16.00;;
79375;SDS011;68846;53.150;18.136;2024-03-06T03:24:51;31.50;;;16.40;;
79375;SDS011;68846;53.150;18.136;2024-03-06T03:37:21;38.30;;;17.20;;
79375;SDS011;68846;53.150;18.136;2024-03-06T03:44:50;33.30;;;16.50;;
79375;SDS011;68846;53.150;18.136;2024-03-06T03:47:19;39.90;;;18.40;;
79375;SDS011;68846;53.150;18.136;2024-03-06T03:54:29;33.00;;;15.70;;
79375;SDS011;68846;53.150;18.136;2024-03-06T03:57:22;37.40;;;18.40;;
79375;SDS011;68846;53.150;18.136;2024-03-06T03:59:49;36.70;;;18.30;;
79375;SDS011;68846;53.150;18.136;2024-03-06T04:02:18;36.70;;;17.80;;
79375;SDS011;68846;53.150;18.136;2024-03-06T04:04:46;38.90;;;18.10;;
79375;SDS011;68846;53.150;18.136;2024-03-06T04:07:14;36.60;;;18.70;;
79375;SDS011;68846;53.150;18.136;2024-03-06T04:09:43;39.00;;;18.40;;
79375;SDS011;68846;53.150;18.136;2024-03-06T04:16:21;42.40;;;19.40;;
79375;SDS011;68846;53.150;18.136;2024-03-06T04:18:50;43.00;;;19.60;;
79375;SDS011;68846;53.150;18.136;2024-03-06T04:26:18;42.20;;;18.10;;
79375;SDS011;68846;53.150;18.136;2024-03-06T04:32:55;43.90;;;19.50;;
79375;SDS011;68846;53.150;18.136;2024-03-06T04:35:28;40.30;;;19.80;;
79375;SDS011;68846;53.150;18.136;2024-03-06T04:37:56;43.20;;;20.30;;
79375;SDS011;68846;53.150;18.136;2024-03-06T04:40:23;52.00;;;22.40;;
79375;SDS011;68846;53.150;18.136;2024-03-06T04:51:50;50.90;;;20.90;;
79375;SDS011;68846;53.150;18.136;2024-03-06T04:54:18;47.10;;;22.40;;
79375;SDS011;68846;53.150;18.136;2024-03-06T04:56:46;50.60;;;23.60;;
79375;SDS011;68846;53.150;18.136;2024-03-06T04:59:13;51.40;;;23.00;;
79375;SDS011;68846;53.150;18.136;2024-03-06T05:01:42;56.90;;;24.20;;
79375;SDS011;68846;53.150;18.136;2024-03-06T05:04:11;55.70;;;22.70;;
79375;SDS011;68846;53.150;18.136;2024-03-06T05:10:49;56.50;;;23.30;;
79375;SDS011;68846;53.150;18.136;2024-03-06T05:13:19;58.00;;;24.10;;
79375;SDS011;68846;53.150;18.136;2024-03-06T05:15:46;59.30;;;27.10;;
79375;SDS011;68846;53.150;18.136;2024-03-06T05:27:06;55.10;;;23.40;;
79375;SDS011;68846;53.150;18.136;2024-03-06T05:32:54;61.90;;;27.00;;
79375;SDS011;68846;53.150;18.136;2024-03-06T05:40:22;61.10;;;26.20;;
79375;SDS011;68846;53.150;18.136;2024-03-06T05:42:51;62.20;;;27.80;;
79375;SDS011;68846;53.150;18.136;2024-03-06T05:48:39;67.20;;;27.80;;
79375;SDS011;68846;53.150;18.136;2024-03-06T05:55:17;70.10;;;28.40;;
79375;SDS011;68846;53.150;18.136;2024-03-06T06:02:01;69.80;;;29.10;;
79375;SDS011;68846;53.150;18.136;2024-03-06T06:04:31;71.10;;;29.90;;
79375;SDS011;68846;53.150;18.136;2024-03-06T06:06:59;69.20;;;29.50;;
79375;SDS011;68846;53.150;18.136;2024-03-06T06:09:27;70.30;;;30.00;;
79375;SDS011;68846;53.150;18.136;2024-03-06T06:16:36;58.20;;;25.20;;
79375;SDS011;68846;53.150;18.136;2024-03-06T06:19:05;63.20;;;28.60;;
79375;SDS011;68846;53.150;18.136;2024-03-06T06:21:33;60.40;;;27.20;;
79375;SDS011;68846;53.150;18.136;2024-03-06T06:24:03;62.80;;;26.90;;
79375;SDS011;68846;53.150;18.136;2024-03-06T06:26:33;60.60;;;27.80;;
79375;SDS011;68846;53.150;18.136;2024-03-06T06:29:01;55.10;;;26.30;;
79375;SDS011;68846;53.150;18.136;2024-03-06T06:31:30;55.50;;;25.50;;
79375;SDS011;68846;53.150;18.136;2024-03-06T06:33:57;56.70;;;27.10;;
79375;SDS011;68846;53.150;18.136;2024-03-06T06:36:25;53.00;;;25.40;;
79375;SDS011;68846;53.150;18.136;2024-03-06T06:38:54;57.80;;;26.50;;
79375;SDS011;68846;53.150;18.136;2024-03-06T06:41:22;52.60;;;24.60;;
79375;SDS011;68846;53.150;18.136;2024-03-06T06:43:50;48.20;;;26.10;;
79375;SDS011;68846;53.150;18.136;2024-03-06T06:46:19;48.20;;;23.70;;
79375;SDS011;68846;53.150;18.136;2024-03-06T06:48:49;46.00;;;23.50;;
79375;SDS011;68846;53.150;18.136;2024-03-06T06:51:17;51.90;;;24.30;;
79375;SDS011;68846;53.150;18.136;2024-03-06T06:53:44;48.00;;;23.70;;
79375;SDS011;68846;53.150;18.136;2024-03-06T06:56:12;44.70;;;25.40;;
79375;SDS011;68846;53.150;18.136;2024-03-06T06:58:41;51.90;;;24.10;;
79375;SDS011;68846;53.150;18.136;2024-03-06T07:01:10;49.70;;;23.10;;
79375;SDS011;68846;53.150;18.136;2024-03-06T07:03:38;48.60;;;23.80;;
79375;SDS011;68846;53.150;18.136;2024-03-06T07:06:06;50.60;;;24.80;;
79375;SDS011;68846;53.150;18.136;2024-03-06T07:08:35;55.50;;;24.80;;
79375;SDS011;68846;53.150;18.136;2024-03-06T07:11:03;55.40;;;24.30;;
79375;SDS011;68846;53.150;18.136;2024-03-06T07:13:31;47.20;;;24.40;;
79375;SDS011;68846;53.150;18.136;2024-03-06T07:15:58;53.70;;;25.60;;
79375;SDS011;68846;53.150;18.136;2024-03-06T07:18:26;49.70;;;22.90;;
79375;SDS011;68846;53.150;18.136;2024-03-06T07:20:54;45.30;;;23.40;;
79375;SDS011;68846;53.150;18.136;2024-03-06T07:23:22;57.20;;;23.40;;
79375;SDS011;68846;53.150;18.136;2024-03-06T07:25:50;50.60;;;23.70;;
79375;SDS011;68846;53.150;18.136;2024-03-06T07:28:18;52.60;;;23.60;;
79375;SDS011;68846;53.150;18.136;2024-03-06T07:30:48;47.50;;;23.50;;
79375;SDS011;68846;53.150;18.136;2024-03-06T07:33:16;47.90;;;21.70;;
79375;SDS011;68846;53.150;18.136;2024-03-06T07:35:43;40.70;;;20.10;;
79375;SDS011;68846;53.150;18.136;2024-03-06T07:38:11;44.60;;;23.00;;
79375;SDS011;68846;53.150;18.136;2024-03-06T07:40:39;44.80;;;22.20;;
79375;SDS011;68846;53.150;18.136;2024-03-06T07:43:07;41.20;;;20.00;;
79375;SDS011;68846;53.150;18.136;2024-03-06T07:45:34;36.30;;;20.10;;
79375;SDS011;68846;53.150;18.136;2024-03-06T07:51:21;40.50;;;19.60;;
79375;SDS011;68846;53.150;18.136;2024-03-06T07:53:49;37.50;;;20.10;;
79375;SDS011;68846;53.150;18.136;2024-03-06T07:56:17;41.70;;;19.80;;
79375;SDS011;68846;53.150;18.136;2024-03-06T07:58:43;39.70;;;20.30;;
79375;SDS011;68846;53.150;18.136;2024-03-06T08:01:12;41.40;;;20.80;;
79375;SDS011;68846;53.150;18.136;2024-03-06T08:03:39;36.20;;;19.50;;
79375;SDS011;68846;53.150;18.136;2024-03-06T08:06:07;39.10;;;20.10;;
79375;SDS011;68846;53.150;18.136;2024-03-06T08:08:34;34.40;;;18.40;;
79375;SDS011;68846;53.150;18.136;2024-03-06T08:11:01;34.50;;;17.20;;
79375;SDS011;68846;53.150;18.136;2024-03-06T08:13:28;35.60;;;17.40;;
79375;SDS011;68846;53.150;18.136;2024-03-06T08:15:55;34.20;;;17.50;;
79375;SDS011;68846;53.150;18.136;2024-03-06T08:18:22;33.90;;;16.00;;
79375;SDS011;68846;53.150;18.136;2024-03-06T08:20:49;28.70;;;16.50;;
79375;SDS011;68846;53.150;18.136;2024-03-06T08:23:16;29.90;;;16.60;;
79375;SDS011;68846;53.150;18.136;2024-03-06T08:25:43;37.20;;;16.30;;
79375;SDS011;68846;53.150;18.136;2024-03-06T08:28:09;31.40;;;15.90;;
79375;SDS011;68846;53.150;18.136;2024-03-06T08:33:04;27.10;;;14.10;;
79375;SDS011;68846;53.150;18.136;2024-03-06T08:35:32;28.90;;;14.30;;
79375;SDS011;68846;53.150;18.136;2024-03-06T08:37:59;26.90;;;15.30;;
79375;SDS011;68846;53.150;18.136;2024-03-06T08:40:26;31.30;;;14.70;;
79375;SDS011;68846;53.150;18.136;2024-03-06T08:42:54;30.40;;;15.70;;
79375;SDS011;68846;53.150;18.136;2024-03-06T08:45:21;31.10;;;15.00;;
79375;SDS011;68846;53.150;18.136;2024-03-06T08:47:49;26.90;;;15.50;;
79375;SDS011;68846;53.150;18.136;2024-03-06T08:50:16;29.00;;;14.90;;
79375;SDS011;68846;53.150;18.136;2024-03-06T08:52:44;31.30;;;15.90;;
79375;SDS011;68846;53.150;18.136;2024-03-06T08:55:13;27.40;;;16.30;;
79375;SDS011;68846;53.150;18.136;2024-03-06T08:57:40;26.70;;;15.20;;
79375;SDS011;68846;53.150;18.136;2024-03-06T09:00:07;25.20;;;13.50;;
79375;SDS011;68846;53.150;18.136;2024-03-06T09:02:37;24.70;;;14.20;;
79375;SDS011;68846;53.150;18.136;2024-03-06T09:05:07;27.10;;;13.40;;
79375;SDS011;68846;53.150;18.136;2024-03-06T09:07:36;22.20;;;11.20;;
79375;SDS011;68846;53.150;18.136;2024-03-06T09:10:04;25.00;;;13.00;;
79375;SDS011;68846;53.150;18.136;2024-03-06T09:12:34;23.40;;;12.50;;
79375;SDS011;68846;53.150;18.136;2024-03-06T09:17:29;21.70;;;11.70;;
79375;SDS011;68846;53.150;18.136;2024-03-06T09:19:56;21.20;;;12.40;;
79375;SDS011;68846;53.150;18.136;2024-03-06T09:22:23;23.40;;;12.80;;
79375;SDS011;68846;53.150;18.136;2024-03-06T09:24:49;21.60;;;12.70;;
79375;SDS011;68846;53.150;18.136;2024-03-06T09:27:17;26.10;;;13.30;;
79375;SDS011;68846;53.150;18.136;2024-03-06T09:29:43;25.00;;;13.40;;
79375;SDS011;68846;53.150;18.136;2024-03-06T09:34:41;25.50;;;13.10;;
79375;SDS011;68846;53.150;18.136;2024-03-06T09:37:09;22.90;;;13.80;;
79375;SDS011;68846;53.150;18.136;2024-03-06T09:46:10;22.50;;;12.70;;
79375;SDS011;68846;53.150;18.136;2024-03-06T09:48:37;26.40;;;13.10;;
79375;SDS011;68846;53.150;18.136;2024-03-06T09:51:12;24.70;;;12.60;;
79375;SDS011;68846;53.150;18.136;2024-03-06T09:53:41;24.50;;;12.80;;
79375;SDS011;68846;53.150;18.136;2024-03-06T09:56:09;24.50;;;13.90;;
79375;SDS011;68846;53.150;18.136;2024-03-06T09:58:37;21.80;;;13.70;;
79375;SDS011;68846;53.150;18.136;2024-03-06T10:01:04;23.60;;;14.40;;
79375;SDS011;68846;53.150;18.136;2024-03-06T10:03:33;28.40;;;13.50;;
79375;SDS011;68846;53.150;18.136;2024-03-06T10:06:00;24.30;;;13.00;;
79375;SDS011;68846;53.150;18.136;2024-03-06T10:08:28;25.80;;;13.70;;
79375;SDS011;68846;53.150;18.136;2024-03-06T10:13:26;28.90;;;13.90;;
79375;SDS011;68846;53.150;18.136;2024-03-06T10:16:01;26.90;;;13.70;;
79375;SDS011;68846;53.150;18.136;2024-03-06T10:18:40;25.40;;;14.10;;
79375;SDS011;68846;53.150;18.136;2024-03-06T10:21:06;24.00;;;13.80;;
79375;SDS011;68846;53.150;18.136;2024-03-06T10:23:34;24.10;;;13.60;;
79375;SDS011;68846;53.150;18.136;2024-03-06T10:26:02;27.20;;;14.20;;
79375;SDS011;68846;53.150;18.136;2024-03-06T10:28:29;23.80;;;13.00;;
79375;SDS011;68846;53.150;18.136;2024-03-06T10:31:03;26.10;;;13.60;;
79375;SDS011;68846;53.150;18.136;2024-03-06T10:33:32;25.40;;;13.10;;
79375;SDS011;68846;53.150;18.136;2024-03-06T10:36:00;23.00;;;12.80;;
79375;SDS011;68846;53.150;18.136;2024-03-06T10:38:27;24.30;;;13.90;;
79375;SDS011;68846;53.150;18.136;2024-03-06T10:41:03;23.50;;;13.10;;
79375;SDS011;68846;53.150;18.136;2024-03-06T10:43:33;24.90;;;13.10;;
79375;SDS011;68846;53.150;18.136;2024-03-06T10:46:04;24.30;;;13.90;;
79375;SDS011;68846;53.150;18.136;2024-03-06T10:48:33;28.60;;;13.90;;
79375;SDS011;68846;53.150;18.136;2024-03-06T10:51:01;25.00;;;14.10;;
79375;SDS011;68846;53.150;18.136;2024-03-06T10:53:30;27.40;;;14.20;;
79375;SDS011;68846;53.150;18.136;2024-03-06T10:55:58;28.70;;;15.70;;
79375;SDS011;68846;53.150;18.136;2024-03-06T10:58:26;25.90;;;13.50;;
79375;SDS011;68846;53.150;18.136;2024-03-06T11:00:56;25.10;;;14.30;;
79375;SDS011;68846;53.150;18.136;2024-03-06T11:03:24;25.70;;;13.90;;
79375;SDS011;68846;53.150;18.136;2024-03-06T11:05:52;26.30;;;15.60;;
79375;SDS011;68846;53.150;18.136;2024-03-06T11:08:19;23.00;;;13.90;;
79375;SDS011;68846;53.150;18.136;2024-03-06T11:10:46;28.30;;;14.10;;
79375;SDS011;68846;53.150;18.136;2024-03-06T11:15:44;24.20;;;13.70;;
79375;SDS011;68846;53.150;18.136;2024-03-06T11:21:22;23.30;;;13.90;;
79375;SDS011;68846;53.150;18.136;2024-03-06T11:26:41;27.80;;;15.00;;
79375;SDS011;68846;53.150;18.136;2024-03-06T11:29:10;24.00;;;14.70;;
79375;SDS011;68846;53.150;18.136;2024-03-06T11:31:37;26.20;;;14.50;;
79375;SDS011;68846;53.150;18.136;2024-03-06T11:34:30;24.20;;;14.50;;
79375;SDS011;68846;53.150;18.136;2024-03-06T11:36:57;24.30;;;12.10;;
79375;SDS011;68846;53.150;18.136;2024-03-06T11:39:59;24.30;;;13.70;;
79375;SDS011;68846;53.150;18.136;2024-03-06T11:42:36;25.50;;;13.50;;
79375;SDS011;68846;53.150;18.136;2024-03-06T11:45:19;23.50;;;12.70;;
79375;SDS011;68846;53.150;18.136;2024-03-06T11:48:13;19.90;;;12.70;;
79375;SDS011;68846;53.150;18.136;2024-03-06T11:50:43;24.70;;;13.10;;
79375;SDS011;68846;53.150;18.136;2024-03-06T11:53:15;24.20;;;13.10;;
79375;SDS011;68846;53.150;18.136;2024-03-06T11:55:44;21.70;;;12.50;;
79375;SDS011;68846;53.150;18.136;2024-03-06T11:58:11;22.70;;;12.40;;
79375;SDS011;68846;53.150;18.136;2024-03-06T12:00:38;22.70;;;13.30;;
79375;SDS011;68846;53.150;18.136;2024-03-06T12:03:05;26.60;;;13.10;;
79375;SDS011;68846;53.150;18.136;2024-03-06T12:07:59;21.10;;;12.90;;
79375;SDS011;68846;53.150;18.136;2024-03-06T12:10:26;22.70;;;11.70;;
79375;SDS011;68846;53.150;18.136;2024-03-06T12:12:53;22.50;;;13.30;;
79375;SDS011;68846;53.150;18.136;2024-03-06T12:15:45;21.40;;;11.80;;
79375;SDS011;68846;53.150;18.136;2024-03-06T12:20:42;19.60;;;11.20;;
79375;SDS011;68846;53.150;18.136;2024-03-06T12:23:22;23.60;;;12.50;;
79375;SDS011;68846;53.150;18.136;2024-03-06T12:26:05;23.90;;;11.20;;
79375;SDS011;68846;53.150;18.136;2024-03-06T12:28:34;19.30;;;11.70;;
79375;SDS011;68846;53.150;18.136;2024-03-06T12:31:06;18.00;;;11.20;;
79375;SDS011;68846;53.150;18.136;2024-03-06T12:33:34;20.60;;;12.10;;
79375;SDS011;68846;53.150;18.136;2024-03-06T12:36:06;17.50;;;10.90;;
79375;SDS011;68846;53.150;18.136;2024-03-06T12:38:36;17.80;;;10.70;;
79375;SDS011;68846;53.150;18.136;2024-03-06T12:41:04;20.80;;;11.20;;
79375;SDS011;68846;53.150;18.136;2024-03-06T12:43:32;18.90;;;10.60;;
79375;SDS011;68846;53.150;18.136;2024-03-06T12:46:01;17.90;;;11.10;;
79375;SDS011;68846;53.150;18.136;2024-03-06T12:48:29;19.60;;;11.10;;
79375;SDS011;68846;53.150;18.136;2024-03-06T12:50:56;22.10;;;10.80;;
79375;SDS011;68846;53.150;18.136;2024-03-06T12:53:31;19.60;;;10.60;;
79375;SDS011;68846;53.150;18.136;2024-03-06T12:55:59;18.30;;;11.00;;
79375;SDS011;68846;53.150;18.136;2024-03-06T12:58:26;19.30;;;9.60;;
79375;SDS011;68846;53.150;18.136;2024-03-06T13:00:53;20.60;;;10.70;;
79375;SDS011;68846;53.150;18.136;2024-03-06T13:03:21;21.60;;;10.50;;
79375;SDS011;68846;53.150;18.136;2024-03-06T13:05:48;17.40;;;9.30;;
79375;SDS011;68846;53.150;18.136;2024-03-06T13:11:08;23.20;;;9.50;;
79375;SDS011;68846;53.150;18.136;2024-03-06T13:13:37;17.80;;;10.70;;
79375;SDS011;68846;53.150;18.136;2024-03-06T13:16:04;15.50;;;9.80;;
79375;SDS011;68846;53.150;18.136;2024-03-06T13:18:31;16.90;;;9.60;;
79375;SDS011;68846;53.150;18.136;2024-03-06T13:20:58;18.10;;;10.70;;
79375;SDS011;68846;53.150;18.136;2024-03-06T13:23:27;18.40;;;10.50;;
79375;SDS011;68846;53.150;18.136;2024-03-06T13:25:54;17.00;;;9.30;;
79375;SDS011;68846;53.150;18.136;2024-03-06T13:28:21;13.50;;;8.80;;
79375;SDS011;68846;53.150;18.136;2024-03-06T13:30:47;15.10;;;9.10;;
79375;SDS011;68846;53.150;18.136;2024-03-06T13:33:14;15.20;;;8.50;;
79375;SDS011;68846;53.150;18.136;2024-03-06T13:38:11;14.00;;;7.80;;
79375;SDS011;68846;53.150;18.136;2024-03-06T13:40:39;14.40;;;7.90;;
79375;SDS011;68846;53.150;18.136;2024-03-06T13:43:06;14.90;;;8.30;;
79375;SDS011;68846;53.150;18.136;2024-03-06T13:45:34;14.90;;;8.10;;
79375;SDS011;68846;53.150;18.136;2024-03-06T13:48:01;15.50;;;8.20;;
79375;SDS011;68846;53.150;18.136;2024-03-06T13:52:55;12.60;;;7.60;;
79375;SDS011;68846;53.150;18.136;2024-03-06T13:55:22;14.20;;;7.70;;
79375;SDS011;68846;53.150;18.136;2024-03-06T13:57:49;14.20;;;7.90;;
79375;SDS011;68846;53.150;18.136;2024-03-06T14:00:17;17.40;;;8.20;;
79375;SDS011;68846;53.150;18.136;2024-03-06T14:02:44;16.80;;;7.70;;
79375;SDS011;68846;53.150;18.136;2024-03-06T14:05:13;12.60;;;7.10;;
79375;SDS011;68846;53.150;18.136;2024-03-06T14:07:43;13.80;;;7.70;;
79375;SDS011;68846;53.150;18.136;2024-03-06T14:10:10;19.00;;;8.10;;
79375;SDS011;68846;53.150;18.136;2024-03-06T14:12:38;19.10;;;8.50;;
79375;SDS011;68846;53.150;18.136;2024-03-06T14:15:06;14.50;;;7.50;;
79375;SDS011;68846;53.150;18.136;2024-03-06T14:17:38;13.70;;;7.20;;
79375;SDS011;68846;53.150;18.136;2024-03-06T14:20:06;13.40;;;7.30;;
79375;SDS011;68846;53.150;18.136;2024-03-06T14:22:35;15.50;;;7.50;;
79375;SDS011;68846;53.150;18.136;2024-03-06T14:25:02;11.90;;;7.00;;
79375;SDS011;68846;53.150;18.136;2024-03-06T14:27:29;11.80;;;6.60;;
79375;SDS011;68846;53.150;18.136;2024-03-06T14:29:56;12.30;;;6.50;;
79375;SDS011;68846;53.150;18.136;2024-03-06T14:32:23;11.50;;;6.40;;
79375;SDS011;68846;53.150;18.136;2024-03-06T14:34:52;11.70;;;6.60;;
79375;SDS011;68846;53.150;18.136;2024-03-06T14:39:45;9.10;;;5.20;;
79375;SDS011;68846;53.150;18.136;2024-03-06T14:42:12;8.50;;;5.90;;
79375;SDS011;68846;53.150;18.136;2024-03-06T14:44:40;10.00;;;6.20;;
79375;SDS011;68846;53.150;18.136;2024-03-06T14:47:07;10.20;;;5.60;;
79375;SDS011;68846;53.150;18.136;2024-03-06T14:49:33;10.40;;;6.00;;
79375;SDS011;68846;53.150;18.136;2024-03-06T14:52:01;11.40;;;6.00;;
79375;SDS011;68846;53.150;18.136;2024-03-06T14:54:32;10.20;;;5.60;;
79375;SDS011;68846;53.150;18.136;2024-03-06T14:56:58;9.50;;;6.40;;
79375;SDS011;68846;53.150;18.136;2024-03-06T14:59:26;9.10;;;5.60;;
79375;SDS011;68846;53.150;18.136;2024-03-06T15:01:53;8.80;;;5.60;;
79375;SDS011;68846;53.150;18.136;2024-03-06T15:04:20;10.00;;;5.50;;
79375;SDS011;68846;53.150;18.136;2024-03-06T15:10:07;12.80;;;5.20;;
79375;SDS011;68846;53.150;18.136;2024-03-06T15:12:35;8.00;;;4.70;;
79375;SDS011;68846;53.150;18.136;2024-03-06T15:15:03;10.90;;;5.40;;
79375;SDS011;68846;53.150;18.136;2024-03-06T15:17:32;8.20;;;5.00;;
79375;SDS011;68846;53.150;18.136;2024-03-06T15:19:59;8.70;;;5.60;;
79375;SDS011;68846;53.150;18.136;2024-03-06T15:22:26;11.10;;;5.20;;
79375;SDS011;68846;53.150;18.136;2024-03-06T15:27:46;8.60;;;4.70;;
79375;SDS011;68846;53.150;18.136;2024-03-06T15:34:20;8.60;;;4.90;;
79375;SDS011;68846;53.150;18.136;2024-03-06T15:36:46;6.80;;;4.30;;
79375;SDS011;68846;53.150;18.136;2024-03-06T15:41:41;8.70;;;4.80;;
79375;SDS011;68846;53.150;18.136;2024-03-06T15:44:08;6.30;;;4.40;;
79375;SDS011;68846;53.150;18.136;2024-03-06T15:46:36;8.30;;;4.80;;
79375;SDS011;68846;53.150;18.136;2024-03-06T15:49:06;9.10;;;4.80;;
79375;SDS011;68846;53.150;18.136;2024-03-06T15:51:45;9.30;;;4.60;;
79375;SDS011;68846;53.150;18.136;2024-03-06T15:54:12;7.70;;;4.20;;
79375;SDS011;68846;53.150;18.136;2024-03-06T15:56:40;7.30;;;4.40;;
79375;SDS011;68846;53.150;18.136;2024-03-06T15:59:07;10.80;;;4.40;;
79375;SDS011;68846;53.150;18.136;2024-03-06T16:01:35;10.00;;;5.30;;
79375;SDS011;68846;53.150;18.136;2024-03-06T16:04:02;7.60;;;4.40;;
79375;SDS011;68846;53.150;18.136;2024-03-06T16:06:30;9.40;;;4.80;;
79375;SDS011;68846;53.150;18.136;2024-03-06T16:08:57;10.30;;;5.20;;
79375;SDS011;68846;53.150;18.136;2024-03-06T16:11:26;9.00;;;4.80;;
79375;SDS011;68846;53.150;18.136;2024-03-06T16:13:55;12.30;;;5.60;;
79375;SDS011;68846;53.150;18.136;2024-03-06T16:16:44;12.40;;;5.60;;
79375;SDS011;68846;53.150;18.136;2024-03-06T16:20:13;8.30;;;4.40;;
79375;SDS011;68846;53.150;18.136;2024-03-06T16:22:41;9.90;;;4.80;;
79375;SDS011;68846;53.150;18.136;2024-03-06T16:25:08;10.00;;;5.10;;
79375;SDS011;68846;53.150;18.136;2024-03-06T16:27:35;12.10;;;5.20;;
79375;SDS011;68846;53.150;18.136;2024-03-06T16:30:02;11.30;;;5.70;;
79375;SDS011;68846;53.150;18.136;2024-03-06T16:32:30;9.30;;;5.20;;
79375;SDS011;68846;53.150;18.136;2024-03-06T16:34:56;11.30;;;5.80;;
79375;SDS011;68846;53.150;18.136;2024-03-06T16:37:23;14.00;;;5.90;;
79375;SDS011;68846;53.150;18.136;2024-03-06T16:39:50;16.90;;;8.50;;
79375;SDS011;68846;53.150;18.136;2024-03-06T16:42:18;11.30;;;5.60;;
79375;SDS011;68846;53.150;18.136;2024-03-06T16:44:45;11.70;;;5.70;;
79375;SDS011;68846;53.150;18.136;2024-03-06T16:47:12;11.60;;;5.60;;
79375;SDS011;68846;53.150;18.136;2024-03-06T16:54:05;10.90;;;5.50;;
79375;SDS011;68846;53.150;18.136;2024-03-06T16:56:56;10.80;;;5.90;;
79375;SDS011;68846;53.150;18.136;2024-03-06T16:59:23;11.20;;;5.80;;
79375;SDS011;68846;53.150;18.136;2024-03-06T17:01:50;11.10;;;6.00;;
79375;SDS011;68846;53.150;18.136;2024-03-06T17:04:18;12.50;;;5.60;;
79375;SDS011;68846;53.150;18.136;2024-03-06T17:06:49;11.70;;;6.00;;
79375;SDS011;68846;53.150;18.136;2024-03-06T17:09:17;12.60;;;5.80;;
79375;SDS011;68846;53.150;18.136;2024-03-06T17:11:45;12.20;;;5.70;;
79375;SDS011;68846;53.150;18.136;2024-03-06T17:14:13;12.00;;;6.00;;
79375;SDS011;68846;53.150;18.136;2024-03-06T17:16:42;11.40;;;5.80;;
79375;SDS011;68846;53.150;18.136;2024-03-06T17:19:10;13.80;;;6.60;;
79375;SDS011;68846;53.150;18.136;2024-03-06T17:21:38;13.00;;;6.40;;
79375;SDS011;68846;53.150;18.136;2024-03-06T17:24:06;13.00;;;6.00;;
79375;SDS011;68846;53.150;18.136;2024-03-06T17:26:34;14.10;;;7.00;;
79375;SDS011;68846;53.150;18.136;2024-03-06T17:29:05;13.10;;;6.10;;
79375;SDS011;68846;53.150;18.136;2024-03-06T17:31:34;12.00;;;6.10;;
79375;SDS011;68846;53.150;18.136;2024-03-06T17:34:05;14.20;;;6.50;;
79375;SDS011;68846;53.150;18.136;2024-03-06T17:36:35;15.40;;;6.20;;